Time;durP1;ratioP1;P1;durP2;ratioP2;P2;SDS_P1;SDS_P2;PMS_P1;PMS_P2;Temp;Humidity;BMP_temperature;BMP_pressure;BME280_temperature;BME280_humidity;BME280_pressure;Samples;Min_cycle;Max_cycle;Signal;HPM_P1;HPM_P2
2021/04/17 00:01:15;;;;;;;2.20;1.20;;;6.40;99.90;;;;;;5145517;27;20223;-79
2021/04/17 00:03:41;;;;;;;1.70;1.30;;;6.40;99.90;;;;;;5140233;27;20191;-79
2021/04/17 00:06:06;;;;;;;5.37;1.40;;;6.40;99.90;;;;;;5140057;27;20398;-78
2021/04/17 00:08:32;;;;;;;1.73;1.50;;;6.40;99.90;;;;;;5143056;27;20164;-78
2021/04/17 00:10:58;;;;;;;2.10;1.87;;;6.40;99.90;;;;;;5145634;27;20172;-79
2021/04/17 00:13:24;;;;;;;1.70;1.40;;;6.40;99.90;;;;;;5142540;27;20424;-79
2021/04/17 00:15:49;;;;;;;3.83;2.03;;;6.40;99.90;;;;;;5141139;27;20179;-79
2021/04/17 00:18:15;;;;;;;1.80;1.37;;;6.40;99.90;;;;;;5140868;27;20893;-79
2021/04/17 00:20:40;;;;;;;1.87;1.40;;;6.40;99.90;;;;;;5141422;27;20569;-77
2021/04/17 00:23:06;;;;;;;1.87;1.37;;;6.40;99.90;;;;;;5143819;27;20219;-79
2021/04/17 00:25:32;;;;;;;2.07;1.33;;;6.40;99.90;;;;;;5123956;27;20405;-79
2021/04/17 00:27:57;;;;;;;2.30;1.53;;;6.40;99.90;;;;;;5143719;27;20176;-80
2021/04/17 00:30:23;;;;;;;1.53;1.40;;;6.40;99.90;;;;;;5122529;27;20267;-78
2021/04/17 00:32:49;;;;;;;1.40;1.30;;;6.40;99.90;;;;;;5140743;27;20244;-78
2021/04/17 00:35:15;;;;;;;1.23;1.10;;;6.40;99.90;;;;;;5140742;27;20402;-78
2021/04/17 00:37:40;;;;;;;3.43;1.20;;;6.40;99.90;;;;;;5139866;27;20175;-78
2021/04/17 00:40:07;;;;;;;2.03;1.63;;;6.40;99.90;;;;;;5136588;27;20200;-78
2021/04/17 00:42:32;;;;;;;2.30;1.30;;;6.40;99.90;;;;;;5136926;27;20607;-78
2021/04/17 00:44:58;;;;;;;1.67;1.40;;;6.40;99.90;;;;;;5126656;27;20410;-77
2021/04/17 00:47:23;;;;;;;1.73;1.63;;;6.40;99.90;;;;;;5144133;27;20476;-79
2021/04/17 00:49:49;;;;;;;5.27;1.50;;;6.40;99.90;;;;;;5140023;27;20225;-79
2021/04/17 00:52:14;;;;;;;1.77;1.20;;;6.40;99.90;;;;;;5121380;27;20188;-79
2021/04/17 00:54:40;;;;;;;2.07;1.50;;;6.40;99.90;;;;;;5138670;27;20274;-78
2021/04/17 00:57:05;;;;;;;1.43;1.13;;;6.40;99.90;;;;;;5119339;27;20220;-78
2021/04/17 00:59:31;;;;;;;2.70;1.50;;;6.40;99.90;;;;;;5121833;27;20196;-78
2021/04/17 01:01:57;;;;;;;1.60;1.27;;;6.50;99.90;;;;;;5139879;27;20160;-79
2021/04/17 01:04:29;;;;;;;1.60;1.20;;;6.40;99.90;;;;;;5140090;27;20581;-78
2021/04/17 01:07:07;;;;;;;3.70;1.30;;;6.40;99.90;;;;;;5137998;27;20194;-79
2021/04/17 01:09:39;;;;;;;2.23;1.77;;;6.40;99.90;;;;;;5139011;27;20459;-78
2021/04/17 01:12:09;;;;;;;2.87;1.47;;;6.40;99.90;;;;;;5126048;27;20434;-78
2021/04/17 01:14:35;;;;;;;1.60;1.50;;;6.40;99.90;;;;;;5139808;27;20433;-79
2021/04/17 01:17:03;;;;;;;2.20;1.57;;;6.50;99.90;;;;;;5123857;27;20416;-78
2021/04/17 01:19:48;;;;;;;1.17;1.07;;;6.40;99.90;;;;;;5144027;27;20441;-79
2021/04/17 01:22:17;;;;;;;5.80;1.73;;;6.40;99.90;;;;;;5138919;27;20462;-79
2021/04/17 01:24:52;;;;;;;3.10;1.50;;;6.40;99.90;;;;;;5124719;27;20444;-79
2021/04/17 01:27:17;;;;;;;3.50;1.67;;;6.40;99.90;;;;;;5123619;28;20430;-79
2021/04/17 01:29:44;;;;;;;2.60;2.27;;;6.40;99.90;;;;;;5101807;28;20444;-79
2021/04/17 01:32:12;;;;;;;4.27;2.20;;;6.50;99.90;;;;;;5118979;28;20258;-78
2021/04/17 01:34:40;;;;;;;3.27;1.60;;;6.40;99.90;;;;;;5118207;28;20483;-78
2021/04/17 01:37:06;;;;;;;2.33;1.63;;;6.30;99.90;;;;;;5117632;28;20486;-79
2021/04/17 01:39:33;;;;;;;3.00;1.50;;;6.30;99.90;;;;;;5117872;28;20478;-78
2021/04/17 01:42:03;;;;;;;2.00;1.10;;;6.30;99.90;;;;;;5100216;28;20442;-78
2021/04/17 01:44:33;;;;;;;3.03;1.57;;;6.20;99.90;;;;;;5119052;28;20855;-79
2021/04/17 01:47:02;;;;;;;4.90;1.40;;;6.20;99.90;;;;;;5100034;28;20407;-79
2021/04/17 01:49:29;;;;;;;2.23;1.60;;;6.20;99.90;;;;;;5118196;28;20930;-79
2021/04/17 01:51:56;;;;;;;3.73;1.60;;;6.10;99.90;;;;;;5118634;28;20403;-79
2021/04/17 01:54:29;;;;;;;1.30;1.20;;;6.00;99.90;;;;;;5100531;28;20415;-78
2021/04/17 01:56:59;;;;;;;1.03;1.00;;;6.00;99.90;;;;;;5118883;28;20452;-78
2021/04/17 01:59:26;;;;;;;3.00;1.30;;;6.00;99.90;;;;;;5117616;28;20585;-79
2021/04/17 02:01:52;;;;;;;1.83;1.63;;;6.10;99.90;;;;;;5118025;28;20482;-77
2021/04/17 02:04:17;;;;;;;2.33;1.97;;;6.00;99.90;;;;;;5123316;28;20427;-78
2021/04/17 02:06:43;;;;;;;5.40;1.27;;;6.00;99.90;;;;;;5125408;28;20184;-79
2021/04/17 02:09:09;;;;;;;3.03;1.57;;;6.10;99.90;;;;;;5103168;28;20200;-78
2021/04/17 02:11:34;;;;;;;3.60;1.93;;;6.10;99.90;;;;;;5135712;27;20406;-78
2021/04/17 02:14:00;;;;;;;3.83;1.40;;;6.10;99.90;;;;;;5136379;27;20191;-78
2021/04/17 02:16:54;;;;;;;1.97;1.47;;;6.10;99.90;;;;;;5137278;27;20161;-78
2021/04/17 02:19:32;;;;;;;3.00;1.70;;;6.10;99.90;;;;;;5139325;27;20534;-78
2021/04/17 02:21:59;;;;;;;2.40;1.73;;;6.10;99.90;;;;;;5140210;27;20398;-78
2021/04/17 02:24:29;;;;;;;2.57;1.90;;;6.10;99.90;;;;;;5139378;27;20405;-79
2021/04/17 02:26:57;;;;;;;1.87;1.27;;;6.10;99.90;;;;;;5138610;27;20481;-79
2021/04/17 02:29:23;;;;;;;3.00;1.50;;;6.10;99.90;;;;;;5137937;27;20409;-79
2021/04/17 02:31:49;;;;;;;1.30;1.20;;;6.10;99.90;;;;;;5138324;27;20464;-78
2021/04/17 02:34:16;;;;;;;3.57;1.30;;;6.10;99.90;;;;;;5137541;27;20418;-78
2021/04/17 02:36:42;;;;;;;2.33;1.50;;;6.20;99.90;;;;;;5139497;27;20408;-79
2021/04/17 02:39:08;;;;;;;2.13;1.73;;;6.20;99.90;;;;;;5142463;27;20441;-79
2021/04/17 02:41:33;;;;;;;4.50;2.60;;;6.20;99.90;;;;;;5137434;27;20652;-79
2021/04/17 02:43:59;;;;;;;2.70;1.80;;;6.10;99.90;;;;;;5137433;27;20207;-79
2021/04/17 02:46:25;;;;;;;2.43;1.63;;;6.20;99.90;;;;;;5137327;27;20478;-79
2021/04/17 02:48:50;;;;;;;2.33;1.53;;;6.20;99.90;;;;;;5137328;27;20188;-79
2021/04/17 02:51:16;;;;;;;1.57;1.47;;;6.20;99.90;;;;;;5128542;27;20240;-79
2021/04/17 02:53:41;;;;;;;2.40;1.43;;;6.20;99.90;;;;;;5137344;27;20272;-78
2021/04/17 02:56:07;;;;;;;2.43;1.87;;;6.20;99.90;;;;;;5135215;27;20179;-78
2021/04/17 02:58:32;;;;;;;2.10;1.70;;;6.20;99.90;;;;;;5136096;27;20197;-78
2021/04/17 03:00:58;;;;;;;2.33;1.40;;;6.30;99.90;;;;;;5135755;27;20160;-78
2021/04/17 03:03:24;;;;;;;7.10;1.63;;;6.20;99.90;;;;;;5137862;27;20206;-79
2021/04/17 03:05:49;;;;;;;2.40;1.73;;;6.20;99.90;;;;;;5137948;27;20164;-78
2021/04/17 03:08:15;;;;;;;3.83;1.30;;;6.30;99.90;;;;;;5138500;27;20176;-79
2021/04/17 03:10:41;;;;;;;2.93;1.47;;;6.30;99.90;;;;;;5119674;27;20259;-78
2021/04/17 03:13:07;;;;;;;1.40;1.30;;;6.30;99.90;;;;;;5145409;27;20220;-78
2021/04/17 03:15:32;;;;;;;2.67;1.47;;;6.30;99.90;;;;;;5140331;27;20172;-79
2021/04/17 03:17:58;;;;;;;1.63;1.50;;;6.40;99.90;;;;;;5135538;27;20409;-78
2021/04/17 03:20:24;;;;;;;4.20;1.67;;;6.40;99.90;;;;;;5137800;27;20188;-79
2021/04/17 03:22:50;;;;;;;2.33;1.60;;;6.40;99.90;;;;;;5136095;27;20428;-79
2021/04/17 03:25:15;;;;;;;3.07;1.77;;;6.40;99.90;;;;;;5113307;28;20184;-80
2021/04/17 03:27:42;;;;;;;2.47;1.73;;;6.40;99.90;;;;;;5120158;28;20540;-78
2021/04/17 03:30:13;;;;;;;2.47;1.43;;;6.40;99.90;;;;;;5137848;28;20169;-78
2021/04/17 03:32:38;;;;;;;5.20;1.80;;;6.40;99.90;;;;;;5136737;28;20481;-79
2021/04/17 03:35:07;;;;;;;2.60;1.30;;;6.40;99.90;;;;;;5118709;28;20410;-79
2021/04/17 03:37:32;;;;;;;2.03;1.67;;;6.40;99.90;;;;;;5137384;28;20164;-79
2021/04/17 03:39:58;;;;;;;1.77;1.27;;;6.40;99.90;;;;;;5136914;28;20471;-79
2021/04/17 03:42:24;;;;;;;3.87;2.13;;;6.40;99.90;;;;;;5137453;28;20184;-78
2021/04/17 03:44:49;;;;;;;5.27;1.50;;;6.40;99.90;;;;;;5137955;28;20169;-79
2021/04/17 03:47:15;;;;;;;2.77;1.80;;;6.40;99.90;;;;;;5136709;28;20187;-80
2021/04/17 03:49:40;;;;;;;1.53;1.40;;;6.40;99.90;;;;;;5138502;28;20183;-78
2021/04/17 03:52:06;;;;;;;2.57;1.63;;;6.30;99.90;;;;;;5137224;28;20195;-79
2021/04/17 03:54:31;;;;;;;1.97;1.80;;;6.30;99.90;;;;;;5137436;28;20247;-78
2021/04/17 03:56:57;;;;;;;2.60;1.53;;;6.20;99.90;;;;;;5138826;28;20198;-79
2021/04/17 03:59:22;;;;;;;4.37;1.90;;;6.20;99.90;;;;;;5141382;28;20199;-79
2021/04/17 04:01:48;;;;;;;2.20;1.50;;;6.20;99.90;;;;;;5118547;28;20164;-79
2021/04/17 04:04:13;;;;;;;3.40;2.00;;;6.20;99.90;;;;;;5118070;28;20511;-79
2021/04/17 04:06:40;;;;;;;2.97;1.83;;;6.20;99.90;;;;;;5136525;28;20179;-79
2021/04/17 04:09:05;;;;;;;3.13;1.73;;;6.20;99.90;;;;;;5118285;28;20632;-79
2021/04/17 04:11:31;;;;;;;3.40;1.70;;;6.20;99.90;;;;;;5136404;28;20417;-79
2021/04/17 04:13:56;;;;;;;3.10;1.80;;;6.20;99.90;;;;;;5137021;28;20192;-79
2021/04/17 04:16:22;;;;;;;2.60;1.80;;;6.20;99.90;;;;;;5137203;28;20625;-79
2021/04/17 04:18:47;;;;;;;1.83;1.40;;;6.20;99.90;;;;;;5137038;28;20198;-79
2021/04/17 04:21:13;;;;;;;2.40;1.67;;;6.20;99.90;;;;;;5136082;28;20161;-79
2021/04/17 04:23:38;;;;;;;3.73;1.33;;;6.20;99.90;;;;;;5136409;28;20723;-79
2021/04/17 04:26:04;;;;;;;4.90;1.80;;;6.20;99.90;;;;;;5136363;28;20168;-79
2021/04/17 04:28:30;;;;;;;3.90;2.07;;;6.20;99.90;;;;;;5136559;28;20176;-79
2021/04/17 04:30:56;;;;;;;2.70;1.60;;;6.20;99.90;;;;;;5118602;28;20198;-79
2021/04/17 04:33:21;;;;;;;3.93;2.27;;;6.30;99.90;;;;;;5139578;27;20504;-79
2021/04/17 04:35:47;;;;;;;1.37;1.27;;;6.20;99.90;;;;;;5122786;27;20179;-79
2021/04/17 04:38:13;;;;;;;2.83;1.80;;;6.30;99.90;;;;;;5141121;27;20687;-79
2021/04/17 04:40:38;;;;;;;3.00;1.47;;;6.30;99.90;;;;;;5140126;27;20514;-79
2021/04/17 04:43:04;;;;;;;1.90;1.53;;;6.30;99.90;;;;;;5122275;27;20203;-79
2021/04/17 04:45:31;;;;;;;2.67;1.43;;;6.30;99.90;;;;;;5140828;27;20172;-79
2021/04/17 04:47:56;;;;;;;3.93;1.93;;;6.30;99.90;;;;;;5140072;27;20255;-79
2021/04/17 04:50:22;;;;;;;3.90;1.63;;;6.30;99.90;;;;;;5132272;27;20439;-79
2021/04/17 04:52:48;;;;;;;3.33;1.70;;;6.30;99.90;;;;;;5140784;27;20847;-79
2021/04/17 04:55:14;;;;;;;3.57;1.57;;;6.30;99.90;;;;;;5140529;27;20216;-79
2021/04/17 04:57:39;;;;;;;3.57;1.70;;;6.30;99.90;;;;;;5140738;27;20175;-79
2021/04/17 05:00:06;;;;;;;2.13;1.60;;;6.30;99.90;;;;;;5139907;27;20449;-79
2021/04/17 05:02:31;;;;;;;2.70;1.60;;;6.30;99.90;;;;;;5140938;27;20268;-79
2021/04/17 05:04:57;;;;;;;1.93;1.33;;;6.40;99.90;;;;;;5140726;27;20402;-79
2021/04/17 05:07:22;;;;;;;3.20;1.60;;;6.40;99.90;;;;;;5140723;27;20176;-79
2021/04/17 05:09:48;;;;;;;11.33;1.70;;;6.30;99.90;;;;;;5140393;27;20164;-79
2021/04/17 05:12:13;;;;;;;3.80;1.53;;;6.40;99.90;;;;;;5140566;27;20188;-79
2021/04/17 05:14:39;;;;;;;1.70;1.37;;;6.40;99.90;;;;;;5123943;27;20176;-80
2021/04/17 05:17:04;;;;;;;3.30;1.73;;;6.30;99.90;;;;;;5144903;27;20172;-79
2021/04/17 05:19:29;;;;;;;3.70;1.43;;;6.40;99.90;;;;;;5143247;27;20206;-79
2021/04/17 05:21:55;;;;;;;4.53;1.87;;;6.40;99.90;;;;;;5141707;27;20612;-78
2021/04/17 05:24:20;;;;;;;3.40;1.60;;;6.40;99.90;;;;;;5140588;27;20541;-78
2021/04/17 05:26:46;;;;;;;1.50;1.40;;;6.30;99.90;;;;;;5125959;27;20176;-79
2021/04/17 05:29:11;;;;;;;2.60;1.90;;;6.40;99.90;;;;;;5124672;28;20181;-79
2021/04/17 05:31:37;;;;;;;2.50;1.67;;;6.40;99.90;;;;;;5123728;28;20192;-78
2021/04/17 05:34:05;;;;;;;3.87;1.60;;;6.50;99.90;;;;;;5121147;28;20200;-77
2021/04/17 05:36:30;;;;;;;3.00;1.30;;;6.50;99.90;;;;;;5121503;28;20264;-79
2021/04/17 05:38:56;;;;;;;2.07;1.37;;;6.40;99.90;;;;;;5119486;28;20898;-79
2021/04/17 05:41:21;;;;;;;1.67;1.57;;;6.40;99.90;;;;;;5119461;28;20165;-79
2021/04/17 05:43:47;;;;;;;2.20;1.30;;;6.30;99.90;;;;;;5135638;27;20238;-79
2021/04/17 05:46:12;;;;;;;2.43;1.40;;;6.30;99.90;;;;;;5120824;27;20187;-80
2021/04/17 05:48:38;;;;;;;3.27;1.63;;;6.30;99.90;;;;;;5140141;27;20160;-78
2021/04/17 05:51:04;;;;;;;3.10;1.33;;;6.40;99.90;;;;;;5141902;27;20180;-78
2021/04/17 05:53:29;;;;;;;4.40;1.67;;;6.30;99.90;;;;;;5141595;27;20181;-79
2021/04/17 05:55:55;;;;;;;1.47;1.13;;;6.40;99.90;;;;;;5123094;27;20402;-78
2021/04/17 05:58:20;;;;;;;2.33;1.30;;;6.30;99.90;;;;;;5142249;27;20636;-81
2021/04/17 06:00:46;;;;;;;3.63;1.80;;;6.40;99.90;;;;;;5140501;27;20198;-79
2021/04/17 06:03:12;;;;;;;1.93;1.40;;;6.40;99.90;;;;;;5139847;27;20184;-79
2021/04/17 06:05:37;;;;;;;2.70;1.37;;;6.40;99.90;;;;;;5141815;27;20160;-79
2021/04/17 06:08:03;;;;;;;2.57;1.47;;;6.40;99.90;;;;;;5123605;27;20165;-80
2021/04/17 06:10:29;;;;;;;1.50;1.20;;;6.40;99.90;;;;;;5138357;27;20291;-79
2021/04/17 06:12:54;;;;;;;3.27;1.43;;;6.50;99.90;;;;;;5137092;27;20445;-79
2021/04/17 06:15:20;;;;;;;4.67;1.57;;;6.50;99.90;;;;;;5141227;27;20171;-78
2021/04/17 06:17:45;;;;;;;2.83;1.60;;;6.60;99.90;;;;;;5122300;27;20172;-78
2021/04/17 06:20:11;;;;;;;3.67;1.77;;;6.50;99.90;;;;;;5139015;27;20247;-78
2021/04/17 06:22:37;;;;;;;5.40;1.80;;;6.40;99.90;;;;;;5138682;27;20188;-78
2021/04/17 06:25:04;;;;;;;2.30;1.57;;;6.40;99.90;;;;;;5139215;27;20161;-78
2021/04/17 06:27:30;;;;;;;7.17;3.27;;;6.40;99.90;;;;;;5117533;27;20259;-76
2021/04/17 06:29:55;;;;;;;5.13;2.10;;;6.50;99.90;;;;;;5135682;27;20561;-77
2021/04/17 06:32:21;;;;;;;4.00;1.60;;;6.40;99.90;;;;;;5139103;27;20213;-79
2021/04/17 06:34:46;;;;;;;2.30;1.90;;;6.40;99.90;;;;;;5136207;27;20183;-76
2021/04/17 06:37:12;;;;;;;4.73;1.30;;;6.40;99.90;;;;;;5140738;27;20164;-79
2021/04/17 06:39:37;;;;;;;4.20;1.80;;;6.40;99.90;;;;;;5141148;27;20191;-78
2021/04/17 06:42:09;;;;;;;2.40;1.60;;;6.40;99.90;;;;;;5122845;27;20187;-78
2021/04/17 06:44:36;;;;;;;1.93;1.40;;;6.50;99.90;;;;;;5141920;27;20183;-80
2021/04/17 06:47:02;;;;;;;4.20;1.97;;;6.50;99.90;;;;;;5124593;27;20412;-80
2021/04/17 06:49:28;;;;;;;3.87;1.43;;;6.50;99.90;;;;;;5124416;27;20398;-79
2021/04/17 06:51:56;;;;;;;4.10;1.63;;;6.50;99.90;;;;;;5142317;27;20200;-78
2021/04/17 06:54:25;;;;;;;4.50;1.60;;;6.60;99.90;;;;;;5143517;27;20770;-79
2021/04/17 06:56:50;;;;;;;3.43;1.83;;;6.60;99.90;;;;;;5146250;27;20905;-79
2021/04/17 06:59:17;;;;;;;4.80;2.07;;;6.70;99.90;;;;;;5147237;27;20441;-80
2021/04/17 07:01:43;;;;;;;4.80;3.17;;;6.70;99.90;;;;;;5157945;27;20220;-79
2021/04/17 07:04:08;;;;;;;8.63;2.10;;;6.60;99.90;;;;;;5155539;27;20447;-79
2021/04/17 07:06:34;;;;;;;3.73;2.13;;;6.60;99.90;;;;;;5150158;27;20410;-79
2021/04/17 07:09:00;;;;;;;7.50;2.23;;;6.60;99.90;;;;;;5153293;27;20284;-79
2021/04/17 07:11:26;;;;;;;3.83;2.03;;;6.60;99.90;;;;;;5156353;27;20472;-80
2021/04/17 07:14:14;;;;;;;3.83;1.70;;;6.70;99.90;;;;;;5148225;27;20214;-80
2021/04/17 07:17:01;;;;;;;3.10;1.60;;;6.70;99.90;;;;;;5151904;27;20720;-81
2021/04/17 07:20:03;;;;;;;5.07;1.70;;;6.70;99.90;;;;;;5145995;27;20441;-80
2021/04/17 07:22:34;;;;;;;6.53;2.00;;;6.70;99.90;;;;;;5129136;27;20426;-79
2021/04/17 07:25:05;;;;;;;4.73;2.13;;;6.80;99.90;;;;;;5130406;28;20416;-79
2021/04/17 07:27:31;;;;;;;2.60;2.40;;;6.80;99.90;;;;;;5145756;28;20509;-79
2021/04/17 07:30:23;;;;;;;9.23;1.87;;;6.90;99.90;;;;;;5145822;28;20404;-79
2021/04/17 07:33:06;;;;;;;8.03;2.50;;;7.00;99.90;;;;;;5128708;28;20438;-78
2021/04/17 07:35:35;;;;;;;4.87;1.67;;;7.10;99.90;;;;;;5143282;28;20405;-81
2021/04/17 07:38:09;;;;;;;3.87;1.50;;;7.00;99.90;;;;;;5143538;28;20429;-80
2021/04/17 07:40:35;;;;;;;3.40;2.00;;;6.90;99.90;;;;;;5123019;28;20995;-81
2021/04/17 07:43:01;;;;;;;4.43;2.20;;;6.90;99.90;;;;;;5141243;28;20445;-81
2021/04/17 07:45:32;;;;;;;2.50;1.33;;;7.20;99.90;;;;;;5125074;28;20226;-80
2021/04/17 07:48:22;;;;;;;2.47;1.90;;;7.20;99.90;;;;;;5124895;28;20167;-79
2021/04/17 07:50:48;;;;;;;3.27;1.93;;;7.30;99.90;;;;;;5126399;28;20932;-81
2021/04/17 07:53:32;;;;;;;2.23;2.03;;;7.30;99.90;;;;;;5146235;28;20437;-80
2021/04/17 07:56:44;;;;;;;3.47;1.93;;;7.40;99.90;;;;;;5146492;28;20410;-80
2021/04/17 07:59:09;;;;;;;4.23;1.90;;;7.60;99.90;;;;;;5121134;28;20513;-77
2021/04/17 08:01:35;;;;;;;3.60;1.83;;;7.50;99.90;;;;;;5133691;28;20811;-79
2021/04/17 08:04:01;;;;;;;3.77;2.00;;;7.60;99.90;;;;;;5125402;28;20204;-77
2021/04/17 08:06:29;;;;;;;6.40;2.30;;;7.80;99.90;;;;;;5131480;27;20164;-77
2021/04/17 08:08:56;;;;;;;3.20;2.33;;;8.00;99.90;;;;;;5143778;27;20418;-78
2021/04/17 08:11:25;;;;;;;2.70;2.00;;;8.20;99.90;;;;;;5144396;27;20501;-77
2021/04/17 08:13:52;;;;;;;5.33;3.07;;;8.00;99.90;;;;;;5142864;27;20418;-80
2021/04/17 08:16:18;;;;;;;4.33;2.70;;;8.00;99.90;;;;;;5147099;27;20398;-81
2021/04/17 08:18:45;;;;;;;3.60;2.20;;;8.10;99.90;;;;;;5139499;27;20432;-79
2021/04/17 08:21:17;;;;;;;4.33;2.67;;;8.20;99.90;;;;;;5138580;27;20161;-80
2021/04/17 08:23:52;;;;;;;6.40;2.30;;;8.50;99.90;;;;;;5126982;28;20422;-80
2021/04/17 08:26:19;;;;;;;5.33;2.47;;;8.40;99.90;;;;;;5118578;28;20405;-78
2021/04/17 08:28:46;;;;;;;3.60;1.93;;;8.30;99.90;;;;;;5122034;28;20448;-78
2021/04/17 08:31:27;;;;;;;3.40;1.87;;;8.50;99.90;;;;;;5121729;28;20406;-78
2021/04/17 08:34:07;;;;;;;5.30;2.10;;;8.70;99.90;;;;;;5117086;28;20478;-78
2021/04/17 08:36:39;;;;;;;3.40;1.80;;;8.80;99.90;;;;;;5099400;28;20411;-77
2021/04/17 08:39:06;;;;;;;2.33;1.80;;;9.00;99.90;;;;;;5099178;28;20556;-78
2021/04/17 08:41:43;;;;;;;3.20;2.17;;;8.90;99.90;;;;;;5117947;28;20407;-79
2021/04/17 08:44:39;;;;;;;3.73;2.10;;;8.90;99.90;;;;;;5137710;27;20430;-78
2021/04/17 08:47:07;;;;;;;3.00;2.20;;;9.30;99.90;;;;;;5121220;27;20769;-78
2021/04/17 08:49:35;;;;;;;4.23;2.30;;;9.50;99.90;;;;;;5138819;27;20459;-77
2021/04/17 08:52:09;;;;;;;4.10;2.10;;;10.00;99.90;;;;;;5144777;27;20458;-77
2021/04/17 08:54:36;;;;;;;5.50;2.17;;;9.70;99.90;;;;;;5149697;27;20396;-78
2021/04/17 08:57:12;;;;;;;4.97;2.00;;;10.30;99.90;;;;;;5151404;27;20414;-79
2021/04/17 08:59:39;;;;;;;3.30;1.97;;;10.10;99.90;;;;;;5131621;28;20457;-78
2021/04/17 09:02:24;;;;;;;5.90;2.00;;;9.90;99.90;;;;;;5117403;28;20419;-78
2021/04/17 09:05:00;;;;;;;6.17;2.97;;;9.80;99.90;;;;;;5098751;28;20429;-77
2021/04/17 09:07:27;;;;;;;2.80;2.20;;;9.90;99.90;;;;;;5117214;28;20398;-77
2021/04/17 09:09:53;;;;;;;3.33;2.47;;;9.90;99.90;;;;;;5117783;28;20410;-78
2021/04/17 09:12:21;;;;;;;6.90;2.50;;;10.40;99.90;;;;;;5110136;27;20473;-77
2021/04/17 09:14:47;;;;;;;8.40;2.30;;;10.60;99.90;;;;;;5145915;27;20402;-77
2021/04/17 09:17:30;;;;;;;3.47;2.30;;;10.10;99.90;;;;;;5146047;27;20410;-77
2021/04/17 09:19:56;;;;;;;3.23;1.87;;;10.00;99.90;;;;;;5139925;27;20464;-77
2021/04/17 09:22:25;;;;;;;3.13;1.97;;;10.30;99.90;;;;;;5131449;27;20462;-78
2021/04/17 09:24:52;;;;;;;4.87;3.07;;;10.60;99.90;;;;;;5117775;28;20181;-78
2021/04/17 09:27:32;;;;;;;3.60;1.87;;;10.60;99.90;;;;;;5117491;27;20407;-77
2021/04/17 09:30:06;;;;;;;5.83;3.00;;;11.10;99.90;;;;;;5100872;28;20406;-79
2021/04/17 09:32:38;;;;;;;6.70;3.00;;;10.90;99.90;;;;;;5121292;27;20792;-78
2021/04/17 09:35:15;;;;;;;8.63;2.80;;;10.70;99.90;;;;;;5135165;27;20466;-78
2021/04/17 09:37:42;;;;;;;3.17;2.20;;;10.80;99.90;;;;;;5129179;27;20525;-76
2021/04/17 09:40:09;;;;;;;3.50;2.53;;;11.00;99.90;;;;;;5123820;27;20453;-77
2021/04/17 09:42:36;;;;;;;5.23;2.30;;;11.20;99.90;;;;;;5130745;27;20956;-75
2021/04/17 09:45:05;;;;;;;9.97;2.97;;;11.20;99.90;;;;;;5120639;27;20422;-77
2021/04/17 09:47:31;;;;;;;2.90;1.83;;;11.20;99.90;;;;;;5118951;27;20402;-78
2021/04/17 09:49:56;;;;;;;7.97;3.20;;;11.20;99.90;;;;;;5138141;27;20480;-77
2021/04/17 09:52:24;;;;;;;6.17;3.33;;;11.70;99.90;;;;;;5120146;27;20188;-78
2021/04/17 09:54:58;;;;;;;5.90;2.23;;;11.80;99.90;;;;;;5139480;27;20160;-78
2021/04/17 09:57:24;;;;;;;5.57;2.20;;;12.50;99.90;;;;;;5139123;27;20782;-78
2021/04/17 09:59:55;;;;;;;4.30;2.90;;;12.50;99.90;;;;;;5137588;27;20546;-79
2021/04/17 10:02:21;;;;;;;11.67;3.50;;;12.20;99.90;;;;;;5120388;28;20184;-78
2021/04/17 10:04:47;;;;;;;8.00;3.17;;;12.20;99.90;;;;;;5137068;27;20406;-78
2021/04/17 10:07:13;;;;;;;7.10;3.20;;;12.60;99.90;;;;;;5138614;27;20433;-79
2021/04/17 10:09:38;;;;;;;6.77;3.10;;;12.20;99.90;;;;;;5120556;27;20406;-79
2021/04/17 10:12:05;;;;;;;4.73;3.07;;;11.90;99.90;;;;;;5139431;27;20196;-79
2021/04/17 10:14:31;;;;;;;6.83;3.00;;;12.10;99.90;;;;;;5139588;27;20700;-77
2021/04/17 10:16:57;;;;;;;5.20;2.60;;;11.90;99.90;;;;;;5130468;27;20497;-79
2021/04/17 10:19:23;;;;;;;4.90;3.00;;;11.70;99.90;;;;;;5135016;27;20200;-79
2021/04/17 10:22:01;;;;;;;4.03;3.30;;;11.70;99.90;;;;;;5118535;27;20410;-78
2021/04/17 10:24:30;;;;;;;6.13;2.70;;;12.70;99.90;;;;;;5137516;27;20402;-78
2021/04/17 10:27:05;;;;;;;6.10;2.80;;;12.90;99.90;;;;;;5136786;27;20410;-78
2021/04/17 10:29:40;;;;;;;6.97;2.90;;;13.00;99.90;;;;;;5116241;27;20454;-78
2021/04/17 10:32:14;;;;;;;6.57;3.20;;;13.30;99.90;;;;;;5116344;28;20430;-78
2021/04/17 10:34:41;;;;;;;5.03;3.40;;;12.90;99.90;;;;;;5116372;28;20409;-78
2021/04/17 10:37:20;;;;;;;4.93;2.63;;;13.20;99.90;;;;;;5117133;28;20431;-78
2021/04/17 10:40:00;;;;;;;4.80;3.43;;;12.70;99.90;;;;;;5116355;28;20446;-78
2021/04/17 10:42:40;;;;;;;4.63;2.97;;;12.80;99.90;;;;;;5101790;27;20961;-78
2021/04/17 10:45:07;;;;;;;7.60;3.60;;;13.20;99.90;;;;;;5136522;27;20824;-78
2021/04/17 10:47:32;;;;;;;4.13;2.90;;;13.20;99.90;;;;;;5140114;27;20406;-78
2021/04/17 10:49:57;;;;;;;6.47;2.67;;;12.90;99.90;;;;;;5140313;27;20421;-77
2021/04/17 10:52:34;;;;;;;5.80;3.27;;;12.90;99.90;;;;;;5139395;27;20196;-77
2021/04/17 10:55:00;;;;;;;5.60;3.03;;;13.00;99.90;;;;;;5143347;27;20191;-78
2021/04/17 10:57:25;;;;;;;4.93;3.13;;;13.00;99.90;;;;;;5127662;27;20489;-79
2021/04/17 10:59:53;;;;;;;4.00;3.30;;;13.50;99.90;;;;;;5138542;27;20229;-79
2021/04/17 11:02:23;;;;;;;6.50;2.93;;;13.20;99.90;;;;;;5139096;27;20188;-77
2021/04/17 11:04:49;;;;;;;6.50;3.80;;;13.30;99.90;;;;;;5138797;27;20434;-79
2021/04/17 11:07:14;;;;;;;5.73;3.03;;;13.30;99.90;;;;;;5137457;27;20414;-79
2021/04/17 11:09:47;;;;;;;8.07;3.63;;;13.30;99.90;;;;;;5119103;27;20610;-79
2021/04/17 11:12:23;;;;;;;8.03;4.17;;;13.30;99.90;;;;;;5118848;27;20190;-79
2021/04/17 11:14:49;;;;;;;3.97;3.23;;;13.50;99.90;;;;;;5132800;27;20417;-78
2021/04/17 11:17:14;;;;;;;5.53;4.00;;;13.80;99.90;;;;;;5125904;27;20425;-78
2021/04/17 11:19:43;;;;;;;6.80;3.80;;;13.60;99.90;;;;;;5120485;27;20899;-78
2021/04/17 11:22:22;;;;;;;3.60;3.00;;;13.00;99.90;;;;;;5117392;27;20257;-78
2021/04/17 11:24:56;;;;;;;6.50;4.27;;;12.90;99.90;;;;;;5132146;27;20496;-78
2021/04/17 11:27:23;;;;;;;5.73;3.83;;;12.90;99.90;;;;;;5134369;27;20417;-77
2021/04/17 11:29:48;;;;;;;4.93;3.50;;;12.90;99.90;;;;;;5136189;28;20410;-78
2021/04/17 11:32:14;;;;;;;5.90;4.00;;;12.70;99.90;;;;;;5134937;28;20429;-79
2021/04/17 11:34:44;;;;;;;6.47;3.67;;;13.10;99.90;;;;;;5117693;28;20172;-79
2021/04/17 11:37:09;;;;;;;5.20;3.70;;;13.20;99.90;;;;;;5137244;28;20168;-79
2021/04/17 11:39:35;;;;;;;8.83;3.77;;;13.80;99.90;;;;;;5136541;28;20456;-79
2021/04/17 11:42:00;;;;;;;4.97;3.20;;;13.80;99.90;;;;;;5121365;27;20229;-79
2021/04/17 11:44:26;;;;;;;6.80;3.73;;;13.90;99.90;;;;;;5141218;27;20260;-79
2021/04/17 11:46:51;;;;;;;5.50;3.50;;;13.90;99.90;;;;;;5140393;27;20688;-79
2021/04/17 11:49:17;;;;;;;7.50;3.80;;;13.60;99.90;;;;;;5141254;27;20181;-78
2021/04/17 11:51:42;;;;;;;3.40;3.10;;;13.90;99.90;;;;;;5139919;27;20172;-79
2021/04/17 11:54:08;;;;;;;5.57;3.10;;;13.60;99.90;;;;;;5140435;27;20179;-79
2021/04/17 11:56:34;;;;;;;6.13;3.50;;;13.70;99.90;;;;;;5140469;27;20172;-79
2021/04/17 11:58:59;;;;;;;11.17;4.50;;;13.50;99.90;;;;;;5142677;27;20557;-78
2021/04/17 12:01:25;;;;;;;9.43;3.40;;;13.90;99.90;;;;;;5124751;27;20255;-79
2021/04/17 12:03:50;;;;;;;5.10;3.30;;;13.80;99.90;;;;;;5143503;27;20188;-79
2021/04/17 12:06:16;;;;;;;3.43;3.10;;;13.80;99.90;;;;;;5140347;27;20165;-78
2021/04/17 12:08:42;;;;;;;7.40;3.70;;;14.10;99.90;;;;;;5123562;27;20671;-79
2021/04/17 12:11:08;;;;;;;6.90;4.00;;;13.60;99.90;;;;;;5143774;27;20476;-79
2021/04/17 12:13:35;;;;;;;4.73;3.60;;;13.60;99.90;;;;;;5147555;27;20442;-79
2021/04/17 12:16:01;;;;;;;7.87;3.93;;;13.90;99.90;;;;;;5150747;27;20183;-79
2021/04/17 12:18:27;;;;;;;11.33;4.80;;;14.00;99.90;;;;;;5150859;27;20720;-79
2021/04/17 12:20:52;;;;;;;6.60;4.00;;;14.30;99.90;;;;;;5149121;27;20525;-79
2021/04/17 12:23:18;;;;;;;5.77;4.70;;;14.10;99.90;;;;;;5134200;27;20204;-79
2021/04/17 12:25:44;;;;;;;6.57;4.00;;;14.00;99.90;;;;;;5141717;27;20206;-79
2021/04/17 12:28:09;;;;;;;5.97;4.10;;;14.10;99.90;;;;;;5139243;27;20164;-79
2021/04/17 12:30:35;;;;;;;8.63;5.60;;;14.20;99.90;;;;;;5139466;27;20624;-79
2021/04/17 12:33:01;;;;;;;10.17;5.00;;;14.10;99.90;;;;;;5139281;27;20322;-79
2021/04/17 12:35:26;;;;;;;7.37;3.83;;;14.20;99.90;;;;;;5139702;27;20267;-78
2021/04/17 12:37:52;;;;;;;8.20;4.47;;;14.00;99.90;;;;;;5137795;27;20209;-78
2021/04/17 12:40:18;;;;;;;5.33;4.10;;;14.00;99.90;;;;;;5137924;27;20188;-79
2021/04/17 12:42:43;;;;;;;4.63;3.77;;;13.80;99.90;;;;;;5138769;27;20582;-79
2021/04/17 12:45:11;;;;;;;5.07;4.00;;;13.80;99.90;;;;;;5139363;27;20414;-79
2021/04/17 12:47:38;;;;;;;5.67;4.50;;;13.70;99.90;;;;;;5135844;27;20192;-78
2021/04/17 12:50:04;;;;;;;7.70;4.50;;;13.50;99.90;;;;;;5133038;27;20569;-79
2021/04/17 12:52:30;;;;;;;8.20;4.17;;;13.50;99.90;;;;;;5118222;27;20437;-79
2021/04/17 12:54:56;;;;;;;7.63;4.00;;;13.80;99.90;;;;;;5117950;28;20403;-78
2021/04/17 12:57:21;;;;;;;7.87;4.33;;;13.90;99.90;;;;;;5133731;27;20237;-78